Time;durP1;ratioP1;P1;durP2;ratioP2;P2;SDS_P1;SDS_P2;PMS_P1;PMS_P2;Temp;Humidity;BMP_temperature;BMP_pressure;BME280_temperature;BME280_humidity;BME280_pressure;Samples;Min_cycle;Max_cycle;Signal;HPM_P1;HPM_P2
2023/02/20 00:00:39;;;;;;;2.03;1.50;;;16.50;63.10;;;;;;5078540;28;20509;-45
2023/02/20 00:03:09;;;;;;;2.63;1.33;;;16.40;63.10;;;;;;5073698;28;20194;-45
2023/02/20 00:05:39;;;;;;;1.67;1.50;;;16.50;63.20;;;;;;5051855;28;20226;-45
2023/02/20 00:08:07;;;;;;;6.10;1.67;;;16.50;63.10;;;;;;5066580;28;20217;-45
2023/02/20 00:10:39;;;;;;;2.30;1.53;;;16.50;63.10;;;;;;5070610;28;20190;-45
2023/02/20 00:13:08;;;;;;;1.80;1.60;;;16.40;63.00;;;;;;5071594;28;20656;-45
2023/02/20 00:15:37;;;;;;;1.83;1.43;;;16.50;63.10;;;;;;5072335;28;20201;-45
2023/02/20 00:18:08;;;;;;;2.70;2.50;;;16.50;63.00;;;;;;5064574;28;20699;-45
2023/02/20 00:20:52;;;;;;;2.40;1.80;;;16.40;62.90;;;;;;5068064;28;20310;-45
2023/02/20 00:23:21;;;;;;;2.33;1.90;;;16.40;62.90;;;;;;5061383;28;20671;-45
2023/02/20 00:25:53;;;;;;;2.27;1.90;;;16.40;63.00;;;;;;5088176;28;20251;-45
2023/02/20 00:28:40;;;;;;;2.07;1.67;;;16.50;63.00;;;;;;5074134;28;20240;-45
2023/02/20 00:31:17;;;;;;;1.63;1.50;;;16.40;63.00;;;;;;5085406;28;20201;-45
2023/02/20 00:33:48;;;;;;;1.93;1.60;;;16.40;62.90;;;;;;5053927;28;20215;-45
2023/02/20 00:36:20;;;;;;;2.27;1.93;;;16.40;62.90;;;;;;5066683;28;20194;-45
2023/02/20 00:38:48;;;;;;;3.07;2.03;;;16.40;63.00;;;;;;5073485;28;20198;-45
2023/02/20 00:41:17;;;;;;;2.90;1.90;;;16.40;63.00;;;;;;5090380;28;20208;-45
2023/02/20 00:43:45;;;;;;;2.80;2.00;;;16.40;62.90;;;;;;5072862;28;20243;-45
2023/02/20 00:46:16;;;;;;;2.13;1.93;;;16.40;62.90;;;;;;5093682;28;20189;-45
2023/02/20 00:48:50;;;;;;;2.00;1.80;;;16.40;63.00;;;;;;5091212;28;20201;-45
2023/02/20 00:51:22;;;;;;;2.23;1.70;;;16.40;63.00;;;;;;5075327;28;20200;-45
2023/02/20 00:53:53;;;;;;;1.90;1.70;;;16.40;62.90;;;;;;5073486;28;20201;-45
2023/02/20 00:56:23;;;;;;;2.07;1.87;;;16.40;63.00;;;;;;5069203;28;20210;-45
2023/02/20 00:58:57;;;;;;;2.43;1.87;;;16.40;62.90;;;;;;5092555;28;20200;-45
2023/02/20 01:01:28;;;;;;;2.10;1.70;;;16.40;62.90;;;;;;5092510;28;20897;-45
2023/02/20 01:03:59;;;;;;;2.40;2.20;;;16.40;62.90;;;;;;5089302;28;20219;-45
2023/02/20 01:06:31;;;;;;;2.40;2.00;;;16.40;62.90;;;;;;5074617;28;20254;-45
2023/02/20 01:09:02;;;;;;;2.00;1.70;;;16.40;62.90;;;;;;5096622;28;20573;-45
2023/02/20 01:11:33;;;;;;;2.17;1.97;;;16.40;62.90;;;;;;5069689;28;20197;-45
2023/02/20 01:14:04;;;;;;;2.50;2.10;;;16.40;62.90;;;;;;5081236;28;20998;-45
2023/02/20 01:16:34;;;;;;;1.90;1.70;;;16.30;62.80;;;;;;5073634;28;20201;-45
2023/02/20 01:19:05;;;;;;;4.83;2.37;;;16.40;62.80;;;;;;5084138;28;20216;-45
2023/02/20 01:21:38;;;;;;;1.97;1.73;;;16.30;62.90;;;;;;5083833;28;20221;-45
2023/02/20 01:24:07;;;;;;;2.10;1.67;;;16.30;62.80;;;;;;5090196;28;20650;-45
2023/02/20 01:26:42;;;;;;;2.37;1.87;;;16.40;62.80;;;;;;5095360;28;20201;-45
2023/02/20 01:29:10;;;;;;;3.70;2.00;;;16.40;62.90;;;;;;5091866;28;20193;-45
2023/02/20 01:31:47;;;;;;;2.97;2.00;;;16.40;62.90;;;;;;5074595;28;20193;-46
2023/02/20 01:34:23;;;;;;;2.93;1.97;;;16.40;62.90;;;;;;5074883;28;20235;-45
2023/02/20 01:36:58;;;;;;;2.50;1.80;;;16.40;62.90;;;;;;5091801;28;20634;-45
2023/02/20 01:39:31;;;;;;;1.97;1.80;;;16.30;62.90;;;;;;5091847;28;20201;-45
2023/02/20 01:42:12;;;;;;;3.23;2.00;;;16.30;62.90;;;;;;5089794;28;20553;-45
2023/02/20 01:44:42;;;;;;;4.20;1.90;;;16.30;62.90;;;;;;5070431;28;20255;-45
2023/02/20 01:47:19;;;;;;;3.07;2.50;;;16.40;62.90;;;;;;5092140;28;20315;-45
2023/02/20 01:49:59;;;;;;;2.90;2.47;;;16.40;63.00;;;;;;5072226;28;20193;-45
2023/02/20 01:52:32;;;;;;;2.63;2.10;;;16.30;62.90;;;;;;5091835;28;20196;-45
2023/02/20 01:55:18;;;;;;;2.47;2.10;;;16.30;62.90;;;;;;5066251;28;20209;-45
2023/02/20 01:57:53;;;;;;;2.63;2.43;;;16.40;62.90;;;;;;5070921;28;20227;-45
2023/02/20 02:00:28;;;;;;;3.87;2.50;;;16.40;63.00;;;;;;5040706;28;20203;-45
2023/02/20 02:03:16;;;;;;;2.70;2.00;;;16.30;62.90;;;;;;5072828;28;20189;-45
2023/02/20 02:05:52;;;;;;;2.67;2.40;;;16.30;63.00;;;;;;5070681;28;20214;-45
2023/02/20 02:08:21;;;;;;;2.37;2.17;;;16.30;63.00;;;;;;5079546;28;20208;-45
2023/02/20 02:11:16;;;;;;;3.13;2.13;;;16.30;63.00;;;;;;5067369;28;20200;-46
2023/02/20 02:13:46;;;;;;;2.50;2.30;;;16.30;62.90;;;;;;5070201;28;20189;-45
2023/02/20 02:16:40;;;;;;;2.87;2.57;;;16.30;62.90;;;;;;5061967;28;20213;-45
2023/02/20 02:19:34;;;;;;;3.63;3.07;;;16.30;62.90;;;;;;5073513;28;20204;-45
2023/02/20 02:22:37;;;;;;;2.50;2.30;;;16.30;62.90;;;;;;5073984;28;20365;-45
2023/02/20 02:25:25;;;;;;;3.90;2.60;;;16.30;62.90;;;;;;5071567;28;20685;-45
2023/02/20 02:28:36;;;;;;;3.67;2.47;;;16.30;62.80;;;;;;5069614;28;20186;-45
2023/02/20 02:31:19;;;;;;;3.07;2.80;;;16.30;62.80;;;;;;5072474;28;20606;-45
2023/02/20 02:34:21;;;;;;;3.10;2.67;;;16.30;63.50;;;;;;5083754;28;20636;-45
2023/02/20 02:37:22;;;;;;;2.87;2.57;;;16.30;62.80;;;;;;5085330;28;20245;-45
2023/02/20 02:40:08;;;;;;;2.60;2.37;;;16.30;62.90;;;;;;5068263;28;20519;-45
2023/02/20 02:43:14;;;;;;;3.40;2.80;;;16.30;62.80;;;;;;5086055;28;20275;-45
2023/02/20 02:46:07;;;;;;;2.97;2.57;;;16.30;62.70;;;;;;5080588;28;20229;-45
2023/02/20 02:48:52;;;;;;;3.80;2.70;;;16.30;62.90;;;;;;5081113;28;20662;-45
2023/02/20 02:51:28;;;;;;;3.20;2.40;;;16.30;62.90;;;;;;5061106;28;20291;-45
2023/02/20 02:54:19;;;;;;;3.23;2.83;;;16.20;62.90;;;;;;5062601;28;20254;-45
2023/02/20 02:57:15;;;;;;;4.17;2.87;;;16.30;62.80;;;;;;5082287;28;20631;-44
2023/02/20 02:59:47;;;;;;;4.60;2.40;;;16.20;62.70;;;;;;5087703;28;20189;-45
2023/02/20 03:02:27;;;;;;;3.20;2.90;;;16.30;62.80;;;;;;5068414;28;20234;-45
2023/02/20 03:04:57;;;;;;;3.57;3.27;;;16.30;62.70;;;;;;5077592;28;20221;-45
2023/02/20 03:07:33;;;;;;;3.83;2.87;;;16.30;62.80;;;;;;5072114;28;20189;-45
2023/02/20 03:10:06;;;;;;;3.10;2.57;;;16.30;62.80;;;;;;5068520;28;20545;-45
2023/02/20 03:12:39;;;;;;;4.70;2.80;;;16.30;62.70;;;;;;5069992;28;20201;-45
2023/02/20 03:15:32;;;;;;;4.53;2.67;;;16.30;62.70;;;;;;5072376;28;20188;-45
2023/02/20 03:18:38;;;;;;;3.20;2.90;;;16.30;62.70;;;;;;5070603;28;20664;-45
2023/02/20 03:21:21;;;;;;;3.97;2.50;;;16.30;62.70;;;;;;5066557;28;20201;-45
2023/02/20 03:24:00;;;;;;;5.03;2.90;;;16.20;62.80;;;;;;5055667;28;20671;-45
2023/02/20 03:26:35;;;;;;;2.90;2.30;;;16.20;62.70;;;;;;5088026;28;20213;-45
2023/02/20 03:29:36;;;;;;;3.53;2.70;;;16.20;62.90;;;;;;5087910;28;20193;-45
2023/02/20 03:43:40;;;;;;;3.87;2.97;;;16.20;62.80;;;;;;5075475;28;20197;-45
2023/02/20 03:46:12;;;;;;;5.33;3.03;;;16.20;62.90;;;;;;5068963;28;20221;-45
2023/02/20 03:48:54;;;;;;;3.40;2.80;;;16.20;62.90;;;;;;5072365;28;20193;-45
2023/02/20 03:54:25;;;;;;;4.63;2.70;;;16.20;62.80;;;;;;5084279;28;20196;-45
2023/02/20 03:57:11;;;;;;;4.10;3.17;;;16.20;62.80;;;;;;5075008;28;20209;-45
2023/02/20 04:00:10;;;;;;;4.40;2.70;;;16.20;62.70;;;;;;5077304;28;20235;-46
2023/02/20 04:02:42;;;;;;;3.80;2.77;;;16.20;62.70;;;;;;5078480;28;20220;-45
2023/02/20 04:05:18;;;;;;;4.10;3.00;;;16.20;62.70;;;;;;5081180;28;20209;-45
2023/02/20 04:08:30;;;;;;;3.57;2.77;;;16.20;63.40;;;;;;5063104;28;20192;-45
2023/02/20 04:11:19;;;;;;;3.13;2.50;;;16.20;62.70;;;;;;5077051;28;20184;-45
2023/02/20 04:13:50;;;;;;;3.40;2.77;;;16.20;62.70;;;;;;5066821;28;20192;-45
2023/02/20 04:16:23;;;;;;;4.57;2.70;;;16.20;62.70;;;;;;5071560;28;20234;-45
2023/02/20 04:18:56;;;;;;;4.53;3.20;;;16.20;62.70;;;;;;5088305;28;20679;-45
2023/02/20 04:21:37;;;;;;;4.37;2.67;;;16.20;62.70;;;;;;5085527;28;20288;-45
2023/02/20 04:24:12;;;;;;;3.10;2.70;;;16.20;62.70;;;;;;5086791;28;21127;-45
2023/02/20 04:26:43;;;;;;;3.37;2.70;;;16.20;62.70;;;;;;5088355;28;20205;-44
2023/02/20 04:29:15;;;;;;;4.57;2.83;;;16.20;62.80;;;;;;5076972;28;20185;-45
2023/02/20 04:31:46;;;;;;;3.93;2.70;;;16.20;62.70;;;;;;5078162;28;20197;-44
2023/02/20 04:34:16;;;;;;;4.00;2.90;;;16.20;62.70;;;;;;5089769;28;20189;-45
2023/02/20 04:36:49;;;;;;;4.50;2.73;;;16.20;62.80;;;;;;5077966;28;20201;-44
2023/02/20 04:39:21;;;;;;;3.43;2.50;;;16.20;62.70;;;;;;5057999;28;20200;-44
2023/02/20 04:41:50;;;;;;;4.47;2.80;;;16.20;62.70;;;;;;5080665;28;20200;-45
2023/02/20 04:44:31;;;;;;;3.33;2.80;;;16.20;62.70;;;;;;5075365;28;20620;-44
2023/02/20 04:47:04;;;;;;;5.27;3.00;;;16.20;62.80;;;;;;5072482;28;20819;-45
2023/02/20 04:49:34;;;;;;;3.90;2.63;;;16.20;62.80;;;;;;5067250;28;20190;-45
2023/02/20 04:52:05;;;;;;;3.43;2.63;;;16.10;62.80;;;;;;5060329;28;21269;-45
2023/02/20 04:54:35;;;;;;;4.13;2.60;;;16.20;62.70;;;;;;5084957;28;20193;-45
2023/02/20 04:57:03;;;;;;;4.03;3.17;;;16.10;62.80;;;;;;5086466;28;20213;-45
2023/02/20 04:59:35;;;;;;;3.53;3.10;;;16.10;62.70;;;;;;5088474;28;20193;-45
2023/02/20 05:02:04;;;;;;;4.67;3.07;;;16.10;62.80;;;;;;5084696;28;20212;-45
2023/02/20 05:04:37;;;;;;;4.20;2.97;;;16.10;62.80;;;;;;5067662;28;20197;-44
2023/02/20 05:07:05;;;;;;;6.23;2.60;;;16.20;62.70;;;;;;5077025;28;20228;-44
2023/02/20 05:09:33;;;;;;;4.10;2.33;;;16.20;62.70;;;;;;5088164;28;20285;-45
2023/02/20 05:12:04;;;;;;;4.10;2.70;;;16.20;62.70;;;;;;5090850;28;20304;-44
2023/02/20 05:14:35;;;;;;;4.00;2.70;;;16.20;62.60;;;;;;5094511;28;20193;-45
2023/02/20 05:17:06;;;;;;;3.03;2.73;;;16.20;63.30;;;;;;5092694;28;20673;-45
2023/02/20 05:19:36;;;;;;;2.97;2.60;;;16.20;62.60;;;;;;5094438;28;20602;-45
2023/02/20 05:22:20;;;;;;;4.20;2.30;;;16.10;62.60;;;;;;5083400;28;20614;-45
2023/02/20 05:24:51;;;;;;;3.47;2.37;;;16.10;62.70;;;;;;5056540;28;20205;-45
2023/02/20 05:27:22;;;;;;;3.50;2.90;;;16.10;62.70;;;;;;5046263;28;20213;-45
2023/02/20 05:29:55;;;;;;;3.30;2.60;;;16.20;62.60;;;;;;5052695;28;20261;-45
2023/02/20 05:32:28;;;;;;;4.03;2.43;;;16.20;62.60;;;;;;5052120;28;20243;-44
2023/02/20 05:35:10;;;;;;;4.27;2.47;;;16.10;62.70;;;;;;5040098;28;20225;-45
2023/02/20 05:37:45;;;;;;;6.03;2.33;;;16.10;62.60;;;;;;5072024;28;20194;-45
2023/02/20 05:40:15;;;;;;;2.97;2.67;;;16.10;62.60;;;;;;5065171;28;20197;-45
2023/02/20 05:42:47;;;;;;;3.83;2.63;;;16.10;62.60;;;;;;5071616;28;20209;-45
2023/02/20 05:45:19;;;;;;;5.50;2.73;;;16.10;62.60;;;;;;5052141;28;20227;-44
2023/02/20 05:47:50;;;;;;;2.73;2.23;;;16.10;62.60;;;;;;5070943;28;20290;-45
2023/02/20 05:50:20;;;;;;;3.67;2.53;;;16.10;62.60;;;;;;5078599;28;20627;-45
2023/02/20 05:52:48;;;;;;;4.43;2.60;;;16.10;62.60;;;;;;5055031;28;20198;-45
2023/02/20 05:55:21;;;;;;;4.07;2.40;;;16.10;62.50;;;;;;5072179;28;20190;-47
2023/02/20 05:57:52;;;;;;;3.93;2.80;;;16.10;62.50;;;;;;5053565;28;20213;-45
2023/02/20 06:00:23;;;;;;;3.10;2.40;;;16.10;62.50;;;;;;5056917;28;20216;-45
2023/02/20 06:02:54;;;;;;;3.33;2.27;;;16.10;62.50;;;;;;5071476;28;20197;-45
2023/02/20 06:05:25;;;;;;;4.30;2.93;;;16.10;62.50;;;;;;5079923;28;20583;-45
2023/02/20 06:07:56;;;;;;;5.00;2.90;;;16.10;62.40;;;;;;5070796;28;20198;-45
2023/02/20 06:10:25;;;;;;;4.10;2.50;;;16.20;62.40;;;;;;5058199;28;20221;-45
2023/02/20 06:12:57;;;;;;;3.80;3.13;;;16.10;63.00;;;;;;5074585;28;20202;-45
2023/02/20 06:15:25;;;;;;;3.20;2.77;;;16.10;62.40;;;;;;5058311;28;20508;-45
2023/02/20 06:17:55;;;;;;;4.30;2.97;;;16.10;62.40;;;;;;5053457;28;20224;-45
2023/02/20 06:20:27;;;;;;;4.67;3.47;;;16.10;62.40;;;;;;5068218;28;20205;-45
2023/02/20 06:22:56;;;;;;;3.37;2.47;;;16.10;62.40;;;;;;5073659;28;20562;-45
2023/02/20 06:25:33;;;;;;;3.40;2.73;;;16.10;62.40;;;;;;5077073;28;20203;-45
2023/02/20 06:28:10;;;;;;;3.87;2.80;;;16.10;62.40;;;;;;5071324;28;20229;-45
2023/02/20 06:30:48;;;;;;;4.27;2.63;;;16.10;62.50;;;;;;5082352;28;20204;-46
2023/02/20 06:33:17;;;;;;;4.10;2.93;;;16.10;62.50;;;;;;5069036;28;20266;-49
2023/02/20 06:36:04;;;;;;;3.87;2.60;;;16.10;62.50;;;;;;5092998;28;20185;-46
2023/02/20 06:38:36;;;;;;;4.40;2.87;;;16.10;62.50;;;;;;5069474;28;20205;-45
2023/02/20 06:41:06;;;;;;;5.37;2.97;;;16.10;62.50;;;;;;5088069;28;20249;-49
2023/02/20 06:43:41;;;;;;;5.20;3.07;;;16.10;62.50;;;;;;5081260;28;20581;-49
2023/02/20 06:46:10;;;;;;;4.83;3.20;;;16.10;62.50;;;;;;5091149;28;20213;-44
2023/02/20 06:48:53;;;;;;;5.20;2.90;;;16.10;62.50;;;;;;5046848;28;20614;-45
2023/02/20 06:51:31;;;;;;;4.23;2.43;;;16.10;62.30;;;;;;5075927;28;20233;-49
2023/02/20 06:54:03;;;;;;;4.37;3.00;;;16.10;62.30;;;;;;5069802;28;20196;-49
2023/02/20 06:56:40;;;;;;;4.00;2.73;;;16.10;62.40;;;;;;5070348;28;20511;-48
2023/02/20 06:59:15;;;;;;;5.47;2.67;;;16.10;62.40;;;;;;5088958;28;20193;-48
2023/02/20 07:01:45;;;;;;;3.53;2.60;;;16.10;62.40;;;;;;5072651;28;20200;-45
2023/02/20 07:04:25;;;;;;;6.67;3.07;;;16.10;62.40;;;;;;5066912;28;20220;-45
2023/02/20 07:06:56;;;;;;;4.80;3.27;;;16.10;62.50;;;;;;5055515;28;20847;-45
2023/02/20 07:09:26;;;;;;;3.70;2.67;;;16.10;62.40;;;;;;5078127;28;20631;-45
2023/02/20 07:11:57;;;;;;;4.63;2.67;;;16.10;62.40;;;;;;5067488;28;20611;-49
2023/02/20 07:14:27;;;;;;;4.27;2.37;;;16.10;62.40;;;;;;5071964;28;20190;-49
2023/02/20 07:16:56;;;;;;;3.37;2.53;;;16.10;62.20;;;;;;5076701;28;20228;-49
2023/02/20 07:19:26;;;;;;;5.87;2.70;;;16.10;62.30;;;;;;5089268;28;20186;-49
2023/02/20 07:21:57;;;;;;;3.83;2.40;;;16.10;62.30;;;;;;5084920;28;20539;-48
2023/02/20 07:24:27;;;;;;;3.40;2.33;;;16.10;62.30;;;;;;5081500;28;20576;-48
2023/02/20 07:27:01;;;;;;;3.93;2.63;;;16.10;62.30;;;;;;5063932;28;20214;-48
2023/02/20 07:29:32;;;;;;;5.53;2.40;;;16.20;62.30;;;;;;5080825;28;20189;-48
2023/02/20 07:32:03;;;;;;;3.97;2.70;;;16.10;62.30;;;;;;5072045;28;20555;-48
2023/02/20 07:34:33;;;;;;;4.07;2.83;;;16.10;62.30;;;;;;5071191;28;20186;-48
2023/02/20 07:37:02;;;;;;;4.00;2.50;;;16.10;62.30;;;;;;5075221;28;20213;-45
2023/02/20 07:39:33;;;;;;;3.97;2.03;;;16.10;62.30;;;;;;5083860;28;20197;-45
2023/02/20 07:42:03;;;;;;;5.73;2.80;;;16.10;62.10;;;;;;5074942;28;20659;-45
2023/02/20 07:44:34;;;;;;;4.13;2.60;;;16.10;62.30;;;;;;5066916;28;20218;-45
2023/02/20 07:47:05;;;;;;;4.83;2.53;;;16.20;62.30;;;;;;5072273;28;20209;-45
2023/02/20 07:49:36;;;;;;;4.37;2.53;;;16.10;62.30;;;;;;5076979;28;20193;-45
2023/02/20 07:52:09;;;;;;;5.73;2.90;;;16.10;62.20;;;;;;5077882;28;20197;-48
2023/02/20 07:54:39;;;;;;;7.13;2.77;;;16.10;62.10;;;;;;5075180;28;20582;-48
2023/02/20 07:57:09;;;;;;;4.20;2.53;;;16.10;62.10;;;;;;5070812;28;20213;-45
2023/02/20 07:59:40;;;;;;;4.60;3.27;;;16.20;62.10;;;;;;5076950;28;20194;-44
2023/02/20 08:02:09;;;;;;;5.43;2.70;;;16.10;62.00;;;;;;5072206;28;20197;-48
2023/02/20 08:04:50;;;;;;;5.87;2.90;;;16.10;61.90;;;;;;5066103;28;20272;-50
2023/02/20 08:07:21;;;;;;;5.80;2.97;;;16.10;61.90;;;;;;5089319;28;20226;-46
2023/02/20 08:09:50;;;;;;;4.73;2.37;;;16.10;61.90;;;;;;5083799;28;20216;-46
2023/02/20 08:12:22;;;;;;;4.70;2.50;;;16.10;61.90;;;;;;5058232;28;20188;-45
2023/02/20 08:14:56;;;;;;;4.00;2.57;;;16.20;61.70;;;;;;5088718;28;20201;-45
2023/02/20 08:17:27;;;;;;;5.40;2.90;;;16.20;61.80;;;;;;5071579;28;20267;-45
2023/02/20 08:20:17;;;;;;;4.13;2.33;;;16.20;61.70;;;;;;5071114;28;20213;-45
2023/02/20 08:22:59;;;;;;;4.97;2.40;;;16.20;61.80;;;;;;5057606;28;20237;-45
2023/02/20 08:25:41;;;;;;;4.77;2.70;;;16.20;62.00;;;;;;5066575;28;20356;-45
2023/02/20 08:28:10;;;;;;;6.40;2.80;;;16.20;62.20;;;;;;5070818;28;20225;-45
2023/02/20 08:30:38;;;;;;;6.87;2.93;;;16.20;62.20;;;;;;5078736;28;20197;-48
2023/02/20 08:33:09;;;;;;;7.37;3.00;;;16.20;62.10;;;;;;5068896;28;20210;-49
2023/02/20 08:35:39;;;;;;;4.40;2.50;;;16.20;62.30;;;;;;5083106;28;20522;-48
2023/02/20 08:38:23;;;;;;;9.27;3.03;;;16.20;62.70;;;;;;5059445;28;20205;-48
2023/02/20 08:40:51;;;;;;;6.20;2.60;;;16.20;62.20;;;;;;5089629;28;20192;-48
2023/02/20 08:43:20;;;;;;;6.13;2.40;;;16.20;62.30;;;;;;5091167;28;20194;-48
2023/02/20 08:45:57;;;;;;;6.90;3.23;;;16.30;62.30;;;;;;5082635;28;20212;-48
2023/02/20 08:48:28;;;;;;;6.00;3.63;;;16.20;62.40;;;;;;5085978;28;20227;-48
2023/02/20 08:51:02;;;;;;;6.40;2.90;;;16.20;62.40;;;;;;5073549;28;20193;-48
2023/02/20 08:53:32;;;;;;;4.47;2.63;;;16.30;62.30;;;;;;5082452;28;20212;-48
2023/02/20 08:56:00;;;;;;;8.67;2.80;;;16.30;62.20;;;;;;5072049;28;20627;-45
2023/02/20 08:58:33;;;;;;;5.60;2.80;;;16.20;62.20;;;;;;5045636;28;20194;-44
2023/02/20 09:01:04;;;;;;;6.37;3.47;;;16.30;62.10;;;;;;5073191;28;20197;-44
2023/02/20 09:03:48;;;;;;;6.03;3.07;;;16.20;62.00;;;;;;5045366;28;20373;-44
2023/02/20 09:06:18;;;;;;;6.20;3.53;;;16.20;61.90;;;;;;5083617;28;20223;-46
2023/02/20 09:11:51;;;;;;;7.77;3.00;;;16.30;61.90;;;;;;5047944;28;20200;-48
2023/02/20 09:14:22;;;;;;;5.70;3.00;;;16.20;61.90;;;;;;5085455;28;20197;-48
2023/02/20 09:16:52;;;;;;;6.23;2.97;;;16.20;61.80;;;;;;5081929;28;20197;-44
2023/02/20 09:19:23;;;;;;;4.40;3.00;;;16.30;61.70;;;;;;5088876;28;20219;-44
2023/02/20 09:21:51;;;;;;;5.33;3.20;;;16.20;61.90;;;;;;5060517;28;20364;-45
2023/02/20 09:24:20;;;;;;;7.63;3.13;;;16.30;61.70;;;;;;5082022;28;20298;-44
2023/02/20 09:26:52;;;;;;;7.13;3.30;;;16.20;61.70;;;;;;5085233;28;20224;-45
2023/02/20 09:29:25;;;;;;;6.00;3.00;;;16.30;61.60;;;;;;5064947;28;20228;-45
2023/02/20 09:31:58;;;;;;;5.90;2.87;;;16.20;61.50;;;;;;5074002;28;20205;-48
2023/02/20 09:34:30;;;;;;;5.20;3.50;;;16.20;61.40;;;;;;5090888;28;20205;-48
2023/02/20 09:36:59;;;;;;;3.63;3.00;;;16.30;62.20;;;;;;5093186;28;20786;-44
2023/02/20 09:39:29;;;;;;;5.93;3.10;;;16.30;61.50;;;;;;5080858;28;20214;-44
2023/02/20 09:42:37;;;;;;;4.43;3.00;;;16.30;61.40;;;;;;5074239;28;20733;-44
2023/02/20 09:45:23;;;;;;;4.57;3.67;;;16.30;61.40;;;;;;5065030;28;20229;-44
2023/02/20 09:48:31;;;;;;;7.23;3.50;;;16.30;61.40;;;;;;5082309;28;20224;-45
2023/02/20 09:51:12;;;;;;;14.73;4.40;;;16.30;61.70;;;;;;5068207;28;20219;-44
2023/02/20 09:54:03;;;;;;;11.73;4.20;;;16.30;62.10;;;;;;5075459;28;20654;-45
2023/02/20 09:56:39;;;;;;;13.27;4.07;;;16.30;62.30;;;;;;5065587;28;20209;-44
2023/02/20 09:59:14;;;;;;;7.73;3.93;;;16.30;62.70;;;;;;5087441;28;20738;-44
2023/02/20 10:02:00;;;;;;;7.47;4.10;;;16.30;63.60;;;;;;5064633;28;20212;-45
2023/02/20 10:04:50;;;;;;;6.37;3.43;;;16.30;63.80;;;;;;5089264;28;20201;-45
2023/02/20 10:07:39;;;;;;;6.27;3.53;;;16.30;63.80;;;;;;5074842;28;20194;-44
2023/02/20 10:10:37;;;;;;;7.27;3.70;;;16.30;64.10;;;;;;5064766;28;20208;-44
2023/02/20 10:13:37;;;;;;;6.57;3.63;;;16.30;64.30;;;;;;5071731;28;20201;-44
2023/02/20 10:16:19;;;;;;;6.23;3.57;;;16.30;64.10;;;;;;5070536;28;20204;-44
2023/02/20 10:19:13;;;;;;;7.77;3.53;;;16.30;64.40;;;;;;5090425;28;20193;-44
2023/02/20 10:22:10;;;;;;;4.77;3.40;;;16.30;64.40;;;;;;5086083;28;20216;-44
2023/02/20 10:25:22;;;;;;;7.97;3.83;;;16.30;64.60;;;;;;5084799;28;20181;-44
2023/02/20 10:28:19;;;;;;;4.00;3.00;;;16.40;64.60;;;;;;5066987;28;20228;-44
2023/02/20 10:31:23;;;;;;;5.80;3.73;;;16.40;64.70;;;;;;5089254;28;20205;-44
2023/02/20 10:34:15;;;;;;;7.50;3.60;;;16.30;64.60;;;;;;5076932;28;20208;-47
2023/02/20 10:37:12;;;;;;;9.70;3.40;;;16.40;64.90;;;;;;5065618;28;20820;-48
2023/02/20 10:39:51;;;;;;;5.00;3.13;;;16.30;65.40;;;;;;5067118;28;20374;-46
2023/02/20 10:42:47;;;;;;;5.20;3.20;;;16.40;65.70;;;;;;5060435;28;20197;-46
2023/02/20 10:45:49;;;;;;;6.70;3.40;;;16.50;65.70;;;;;;5069902;28;20217;-45
2023/02/20 10:48:21;;;;;;;5.30;3.00;;;16.60;65.90;;;;;;5087560;28;20204;-47
2023/02/20 10:51:13;;;;;;;6.93;3.73;;;16.60;65.90;;;;;;5066611;28;20192;-46
2023/02/20 10:54:04;;;;;;;6.60;3.83;;;16.60;66.20;;;;;;5078532;28;20190;-45
2023/02/20 10:56:53;;;;;;;8.13;3.33;;;16.70;66.50;;;;;;5085149;28;20247;-45
2023/02/20 10:59:37;;;;;;;4.93;3.07;;;16.80;66.60;;;;;;5092306;28;20204;-46
2023/02/20 11:02:15;;;;;;;68.47;18.03;;;16.80;66.40;;;;;;5076794;28;20197;-46
2023/02/20 11:05:00;;;;;;;148.77;35.70;;;16.90;65.10;;;;;;5051223;28;20181;-47
2023/02/20 11:07:34;;;;;;;154.70;37.70;;;17.00;66.00;;;;;;5085655;28;20220;-47
2023/02/20 11:10:06;;;;;;;132.23;33.07;;;17.20;66.40;;;;;;5073337;28;20228;-46
2023/02/20 11:12:48;;;;;;;129.03;32.53;;;17.20;66.50;;;;;;5084208;28;20185;-46
2023/02/20 11:15:44;;;;;;;103.47;26.80;;;17.20;66.40;;;;;;5062026;28;20185;-47
2023/02/20 11:18:37;;;;;;;97.90;27.27;;;17.30;66.30;;;;;;5060658;28;20558;-47
2023/02/20 11:21:44;;;;;;;84.33;25.53;;;17.40;66.60;;;;;;5071497;28;20213;-46
2023/02/20 11:24:34;;;;;;;70.40;21.43;;;17.40;65.60;;;;;;5050617;28;20271;-47
2023/02/20 11:27:15;;;;;;;63.57;17.90;;;17.50;65.80;;;;;;5066799;28;20538;-46
2023/02/20 11:29:55;;;;;;;54.67;17.37;;;17.50;65.70;;;;;;5044861;28;20537;-45
2023/02/20 11:32:35;;;;;;;61.13;17.30;;;17.60;65.70;;;;;;5039962;28;20210;-46
2023/02/20 11:35:21;;;;;;;46.73;15.50;;;17.60;66.00;;;;;;5065833;28;20182;-46
2023/02/20 11:38:12;;;;;;;48.03;14.90;;;17.60;65.10;;;;;;5048407;28;20190;-46
2023/02/20 11:40:41;;;;;;;51.77;13.73;;;17.60;67.40;;;;;;5036793;28;20740;-46
2023/02/20 11:43:20;;;;;;;38.07;12.27;;;17.60;67.40;;;;;;5051576;28;20225;-46
2023/02/20 11:45:48;;;;;;;39.97;12.93;;;17.50;67.30;;;;;;5032903;28;20205;-46
2023/02/20 11:48:21;;;;;;;32.37;11.17;;;17.50;67.80;;;;;;5066482;28;20594;-46
2023/02/20 11:50:52;;;;;;;38.17;12.17;;;17.50;67.80;;;;;;5041702;28;20206;-46
2023/02/20 11:53:31;;;;;;;25.87;9.93;;;17.50;68.00;;;;;;5046879;28;20206;-46
2023/02/20 11:56:23;;;;;;;28.93;10.27;;;17.40;67.70;;;;;;5055068;28;20678;-46
2023/02/20 11:58:51;;;;;;;25.20;9.93;;;17.40;68.50;;;;;;5066517;28;20216;-45
2023/02/20 12:01:31;;;;;;;26.30;9.87;;;17.40;68.30;;;;;;5061486;28;20225;-46
2023/02/20 12:04:15;;;;;;;24.53;9.70;;;17.40;68.70;;;;;;5046493;28;20529;-46
2023/02/20 12:06:46;;;;;;;20.20;8.20;;;17.40;68.50;;;;;;5065243;28;20238;-45
2023/02/20 12:09:24;;;;;;;20.40;8.70;;;17.30;67.70;;;;;;5044195;28;20232;-46
2023/02/20 12:12:02;;;;;;;20.70;8.07;;;17.30;67.10;;;;;;5028123;28;20212;-46
2023/02/20 12:14:32;;;;;;;22.77;9.70;;;17.30;68.60;;;;;;5069120;28;20834;-46
2023/02/20 12:17:29;;;;;;;23.67;8.37;;;17.20;68.70;;;;;;5048552;28;20272;-46
2023/02/20 12:20:18;;;;;;;17.17;7.07;;;17.30;67.60;;;;;;5056778;28;20214;-46
2023/02/20 12:23:15;;;;;;;17.97;6.70;;;17.30;68.20;;;;;;5074080;28;20610;-45
2023/02/20 12:26:14;;;;;;;13.70;6.57;;;17.30;69.30;;;;;;5055201;28;20226;-46
2023/02/20 12:29:26;;;;;;;17.67;6.63;;;17.30;69.60;;;;;;5068083;28;20562;-45
2023/02/20 12:32:19;;;;;;;13.50;6.23;;;17.30;69.70;;;;;;5070370;28;20197;-46
2023/02/20 12:35:28;;;;;;;13.37;6.00;;;17.30;69.90;;;;;;5056323;28;20206;-46
2023/02/20 12:38:16;;;;;;;14.80;6.17;;;17.20;69.20;;;;;;5064420;28;20194;-46
2023/02/20 12:41:01;;;;;;;16.13;6.07;;;17.20;69.30;;;;;;5085600;28;20220;-46
2023/02/20 12:44:01;;;;;;;14.53;5.50;;;17.20;69.30;;;;;;5083215;28;20233;-45
2023/02/20 12:47:17;;;;;;;10.33;4.70;;;17.20;69.10;;;;;;5081153;28;20622;-46
2023/02/20 12:49:56;;;;;;;11.30;5.43;;;17.20;69.10;;;;;;5080192;28;20204;-46
2023/02/20 12:52:44;;;;;;;11.53;5.77;;;17.10;68.70;;;;;;5083956;28;20185;-45
2023/02/20 12:55:29;;;;;;;8.20;4.50;;;17.10;68.90;;;;;;5079273;28;20206;-46
2023/02/20 12:58:24;;;;;;;8.37;5.20;;;17.10;68.70;;;;;;5059396;28;20206;-45
2023/02/20 13:00:57;;;;;;;12.63;5.63;;;17.10;69.60;;;;;;5079674;28;20186;-47
2023/02/20 13:03:47;;;;;;;10.77;5.53;;;17.10;69.20;;;;;;5060984;28;20189;-46
2023/02/20 13:06:58;;;;;;;10.03;4.73;;;17.10;68.80;;;;;;5080558;28;20790;-45
2023/02/20 13:09:34;;;;;;;8.20;4.67;;;17.10;68.60;;;;;;5067203;28;20213;-46
2023/02/20 13:12:16;;;;;;;10.73;5.40;;;17.10;68.80;;;;;;5068621;28;20186;-46
2023/02/20 13:15:00;;;;;;;10.33;4.87;;;17.10;69.20;;;;;;5081885;28;20223;-47
2023/02/20 13:17:52;;;;;;;10.43;4.73;;;17.00;68.90;;;;;;5084614;28;20254;-46
2023/02/20 13:20:28;;;;;;;9.00;4.70;;;17.00;68.90;;;;;;5072381;28;20213;-46
2023/02/20 13:23:31;;;;;;;9.47;5.27;;;17.00;69.90;;;;;;5052561;28;20247;-47
2023/02/20 13:26:01;;;;;;;9.93;5.03;;;17.10;68.80;;;;;;5041965;28;20209;-46
2023/02/20 13:28:43;;;;;;;5.90;4.17;;;17.00;69.30;;;;;;5059596;28;20283;-46
2023/02/20 13:31:47;;;;;;;7.47;4.57;;;17.00;69.50;;;;;;5056400;28;20227;-46
2023/02/20 13:34:21;;;;;;;9.77;4.83;;;17.00;68.50;;;;;;5021969;28;20265;-46
2023/02/20 13:36:53;;;;;;;9.07;4.47;;;16.90;68.80;;;;;;5067982;28;20239;-46
2023/02/20 13:39:36;;;;;;;8.70;4.93;;;17.00;69.50;;;;;;5066478;28;20206;-46
2023/02/20 13:42:28;;;;;;;6.77;4.53;;;17.00;69.50;;;;;;5068022;28;20455;-46
2023/02/20 13:44:59;;;;;;;8.27;4.03;;;16.90;68.80;;;;;;5045276;28;20271;-47
2023/02/20 13:47:40;;;;;;;9.77;4.40;;;17.00;69.50;;;;;;5026951;28;20210;-46
2023/02/20 13:50:29;;;;;;;9.13;5.03;;;16.90;69.40;;;;;;5052495;28;20209;-46
2023/02/20 13:53:01;;;;;;;7.00;4.03;;;17.00;68.40;;;;;;5067882;28;20197;-46
2023/02/20 13:55:28;;;;;;;5.40;3.40;;;16.90;68.90;;;;;;5060578;28;20697;-46
2023/02/20 13:58:14;;;;;;;4.80;3.90;;;16.90;69.20;;;;;;5046555;28;20272;-47
2023/02/20 14:00:51;;;;;;;7.43;4.00;;;17.00;68.60;;;;;;5067181;28;20247;-46